createdAt,value
2023-02-08T00:00:06.312Z,13.73
2023-02-08T00:02:32.926Z,13.82
2023-02-08T00:04:59.686Z,13.13
2023-02-08T00:07:26.369Z,14.73
2023-02-08T00:09:53.114Z,13.75
2023-02-08T00:12:20.981Z,14.60
2023-02-08T00:14:47.677Z,13.40
2023-02-08T00:17:14.331Z,12.70
2023-02-08T00:19:41.155Z,14.75
2023-02-08T00:22:07.912Z,15.00
2023-02-08T00:24:35.284Z,15.73
2023-02-08T00:27:02.022Z,14.68
2023-02-08T00:29:28.703Z,15.45
2023-02-08T00:31:55.367Z,14.93
2023-02-08T00:34:22.033Z,13.60
2023-02-08T00:36:48.776Z,14.23
2023-02-08T00:39:16.712Z,14.75
2023-02-08T00:41:43.342Z,13.77
2023-02-08T00:44:09.966Z,14.80
2023-02-08T00:46:36.641Z,14.60
2023-02-08T00:49:03.360Z,14.57
2023-02-08T00:51:29.993Z,14.63
2023-02-08T00:53:56.644Z,12.88
2023-02-08T00:56:23.317Z,15.13
2023-02-08T00:58:50.070Z,14.63
2023-02-08T01:01:16.854Z,14.45
2023-02-08T01:03:43.894Z,14.73
2023-02-08T01:06:13.240Z,15.05
2023-02-08T01:08:39.959Z,13.18
2023-02-08T01:11:14.547Z,13.55
2023-02-08T01:13:41.237Z,13.50
2023-02-08T01:16:08.770Z,13.20
2023-02-08T01:18:35.531Z,12.40
2023-02-08T01:21:06.829Z,13.13
2023-02-08T01:23:33.520Z,13.30
2023-02-08T01:26:00.141Z,13.82
2023-02-08T01:28:26.800Z,13.48
2023-02-08T01:30:53.490Z,13.73
2023-02-08T01:33:20.179Z,13.57
2023-02-08T01:35:51.200Z,13.85
2023-02-08T01:38:18.089Z,13.05
2023-02-08T01:40:44.746Z,13.45
2023-02-08T01:43:20.491Z,13.30
2023-02-08T01:45:47.231Z,14.30
2023-02-08T01:48:18.596Z,14.85
2023-02-08T01:50:54.104Z,14.45
2023-02-08T01:53:20.808Z,13.63
2023-02-08T01:55:49.270Z,14.55
2023-02-08T01:58:15.907Z,14.02
2023-02-08T02:03:26.196Z,14.65
2023-02-08T02:05:56.126Z,13.23
2023-02-08T02:08:22.755Z,14.43
2023-02-08T02:10:49.574Z,13.70
2023-02-08T02:13:23.498Z,14.18
2023-02-08T02:15:50.405Z,14.00
2023-02-08T02:18:27.785Z,14.38
2023-02-08T02:21:19.305Z,14.55
2023-02-08T02:23:57.845Z,14.88
2023-02-08T02:26:45.779Z,14.25
2023-02-08T02:29:35.850Z,14.25
2023-02-08T02:32:11.402Z,14.98
2023-02-08T02:34:41.663Z,15.90
2023-02-08T02:37:08.262Z,15.45
2023-02-08T02:40:06.377Z,15.15
2023-02-08T02:42:44.230Z,15.43
2023-02-08T02:45:32.793Z,15.02
2023-02-08T02:48:06.626Z,15.48
2023-02-08T02:50:40.720Z,15.00
2023-02-08T02:53:23.925Z,14.55
2023-02-08T02:55:54.265Z,14.23
2023-02-08T02:58:21.554Z,15.68
2023-02-08T03:00:55.467Z,13.82
2023-02-08T03:03:26.610Z,14.18
2023-02-08T03:05:57.325Z,15.27
2023-02-08T03:09:01.850Z,13.30
2023-02-08T03:11:32.740Z,14.55
2023-02-08T03:14:25.115Z,14.30
2023-02-08T03:17:02.944Z,13.93
2023-02-08T03:19:37.340Z,13.77
2023-02-08T03:22:19.981Z,14.30
2023-02-08T03:27:22.530Z,14.77
2023-02-08T03:29:51.997Z,15.38
2023-02-08T03:32:42.948Z,16.35
2023-02-08T03:35:26.796Z,14.73
2023-02-08T03:38:06.069Z,14.68
2023-02-08T03:40:38.135Z,15.00
2023-02-08T03:43:33.644Z,15.07
2023-02-08T03:46:07.460Z,16.00
2023-02-08T03:48:41.444Z,14.82
2023-02-08T03:51:08.240Z,14.98
2023-02-08T03:53:34.856Z,15.05
2023-02-08T03:56:02.240Z,14.40
2023-02-08T03:58:34.647Z,15.93
2023-02-08T04:01:07.802Z,14.75
2023-02-08T04:03:34.538Z,14.68
2023-02-08T04:06:01.139Z,15.05
2023-02-08T04:08:27.761Z,14.88
2023-02-08T04:10:54.434Z,15.48
2023-02-08T04:13:21.055Z,15.13
2023-02-08T04:15:47.790Z,14.90
2023-02-08T04:18:14.487Z,16.85
2023-02-08T04:20:41.376Z,15.35
2023-02-08T04:23:08.165Z,14.45
2023-02-08T04:25:34.855Z,14.93
2023-02-08T04:28:01.598Z,16.38
2023-02-08T04:30:30.128Z,15.98
2023-02-08T04:32:56.794Z,14.50
2023-02-08T04:35:23.527Z,14.75
2023-02-08T04:37:50.183Z,15.10
2023-02-08T04:40:17.028Z,16.00
2023-02-08T04:42:43.690Z,14.93
2023-02-08T04:45:10.361Z,15.05
2023-02-08T04:47:37.016Z,15.90
2023-02-08T04:50:03.876Z,15.38
2023-02-08T04:52:30.522Z,15.48
2023-02-08T04:54:57.191Z,16.88
2023-02-08T04:57:23.805Z,15.85
2023-02-08T04:59:50.462Z,16.60
2023-02-08T05:02:29.923Z,15.30
2023-02-08T05:05:06.900Z,14.68
2023-02-08T05:07:33.538Z,15.40
2023-02-08T05:10:00.235Z,16.35
2023-02-08T05:12:26.970Z,16.02
2023-02-08T05:14:53.613Z,16.15
2023-02-08T05:17:20.274Z,15.63
2023-02-08T05:19:46.874Z,14.63
2023-02-08T05:22:13.481Z,16.05
2023-02-08T05:24:40.149Z,15.32
2023-02-08T05:27:06.810Z,15.20
2023-02-08T05:29:33.484Z,15.60
2023-02-08T05:32:00.200Z,15.23
2023-02-08T05:34:26.952Z,15.35
2023-02-08T05:36:53.557Z,16.17
2023-02-08T05:39:20.283Z,16.33
2023-02-08T05:41:46.917Z,14.32
2023-02-08T05:44:13.609Z,14.02
2023-02-08T05:46:40.272Z,14.57
2023-02-08T05:49:06.954Z,14.95
2023-02-08T05:51:33.568Z,15.35
2023-02-08T05:54:00.302Z,14.43
2023-02-08T05:56:26.979Z,14.60
2023-02-08T05:58:53.803Z,16.02
2023-02-08T06:01:32.835Z,18.55
2023-02-08T06:03:59.956Z,16.40
2023-02-08T06:06:27.104Z,17.88
2023-02-08T06:08:53.854Z,15.60
2023-02-08T06:11:20.591Z,24.40
2023-02-08T06:13:47.403Z,22.73
2023-02-08T06:16:14.414Z,20.02
2023-02-08T06:18:41.098Z,17.98
2023-02-08T06:21:07.873Z,18.30
2023-02-08T06:23:34.626Z,16.67
2023-02-08T06:26:01.269Z,16.80
2023-02-08T06:28:27.972Z,16.35
2023-02-08T06:30:54.753Z,15.80
2023-02-08T06:33:21.361Z,18.00
2023-02-08T06:35:50.579Z,16.80
2023-02-08T06:38:17.304Z,15.82
2023-02-08T06:40:46.989Z,15.52
2023-02-08T06:43:13.980Z,15.20
2023-02-08T06:45:45.335Z,17.63
2023-02-08T06:48:12.452Z,16.52
2023-02-08T06:50:39.424Z,17.25
2023-02-08T06:53:09.007Z,18.30
2023-02-08T06:55:35.710Z,22.15
2023-02-08T06:58:03.552Z,20.27
2023-02-08T07:00:30.650Z,17.88
2023-02-08T07:02:58.178Z,17.35
2023-02-08T07:05:24.811Z,16.15
2023-02-08T07:07:51.511Z,16.23
2023-02-08T07:10:18.174Z,16.13
2023-02-08T07:12:44.901Z,14.93
2023-02-08T07:15:11.533Z,17.88
2023-02-08T07:17:38.173Z,15.70
2023-02-08T07:20:05.123Z,17.63
2023-02-08T07:22:31.850Z,15.32
2023-02-08T07:24:58.596Z,16.35
2023-02-08T07:27:26.129Z,15.68
2023-02-08T07:29:52.873Z,15.13
2023-02-08T07:32:19.530Z,16.23
2023-02-08T07:34:46.230Z,17.02
2023-02-08T07:37:12.903Z,15.85
2023-02-08T07:39:41.578Z,17.48
2023-02-08T07:42:09.238Z,16.95
2023-02-08T07:44:39.097Z,16.40
2023-02-08T07:47:06.384Z,15.10
2023-02-08T07:49:33.242Z,16.40
2023-02-08T07:52:03.164Z,15.68
2023-02-08T07:54:29.929Z,16.17
2023-02-08T07:56:56.935Z,15.25
2023-02-08T07:59:23.606Z,16.33
2023-02-08T08:01:50.338Z,15.75
2023-02-08T08:04:17.038Z,17.33
2023-02-08T08:06:43.817Z,16.85
2023-02-08T08:09:10.421Z,16.45
2023-02-08T08:11:37.048Z,17.65
2023-02-08T08:14:03.742Z,17.60
2023-02-08T08:16:30.416Z,18.33
2023-02-08T08:18:57.193Z,17.60
2023-02-08T08:21:23.807Z,17.92
2023-02-08T08:23:50.474Z,17.02
2023-02-08T08:26:19.269Z,18.90
2023-02-08T08:28:46.240Z,16.65
2023-02-08T08:31:16.607Z,16.08
2023-02-08T08:33:43.318Z,16.60
2023-02-08T08:36:10.042Z,17.25
2023-02-08T08:38:36.907Z,17.02
2023-02-08T08:41:08.005Z,17.48
2023-02-08T08:43:34.639Z,15.10
2023-02-08T08:46:01.297Z,16.23
2023-02-08T08:48:28.130Z,16.48
2023-02-08T08:50:55.031Z,15.77
2023-02-08T08:53:21.755Z,16.33
2023-02-08T08:55:48.534Z,16.02
2023-02-08T08:58:15.230Z,15.75
2023-02-08T09:00:42.195Z,15.48
2023-02-08T09:03:09.054Z,15.05
2023-02-08T09:05:36.020Z,14.60
2023-02-08T09:08:02.766Z,13.85
2023-02-08T09:10:30.119Z,13.77
2023-02-08T09:12:58.281Z,14.63
2023-02-08T09:15:24.972Z,15.15
2023-02-08T09:17:51.638Z,14.55
2023-02-08T09:20:18.322Z,12.65
2023-02-08T09:22:45.062Z,13.60
2023-02-08T09:25:13.130Z,15.00
2023-02-08T09:27:39.892Z,13.23
2023-02-08T09:30:07.082Z,13.80
2023-02-08T09:32:33.866Z,14.20
2023-02-08T09:35:00.981Z,14.13
2023-02-08T09:37:27.935Z,12.07
2023-02-08T09:39:54.626Z,13.00
2023-02-08T09:42:44.478Z,11.82
2023-02-08T09:45:22.981Z,10.82
2023-02-08T09:48:20.453Z,11.25
2023-02-08T09:50:50.555Z,11.63
2023-02-08T09:53:22.414Z,10.88
2023-02-08T09:55:59.478Z,11.77
2023-02-08T09:58:39.402Z,12.40
2023-02-08T10:01:16.055Z,10.02
2023-02-08T10:03:43.107Z,11.65
2023-02-08T10:06:14.863Z,10.38
2023-02-08T10:08:42.100Z,10.15
2023-02-08T10:11:17.367Z,11.15
2023-02-08T10:14:03.004Z,10.40
2023-02-08T10:16:52.406Z,10.02
2023-02-08T10:19:56.528Z,9.30
2023-02-08T10:22:40.810Z,9.77
2023-02-08T10:25:33.350Z,11.02
2023-02-08T10:28:24.675Z,10.18
2023-02-08T10:31:02.724Z,10.20
2023-02-08T10:33:55.101Z,9.52
2023-02-08T10:36:23.941Z,8.80
2023-02-08T10:38:51.797Z,9.65
2023-02-08T10:41:27.111Z,9.70
2023-02-08T10:44:09.668Z,9.18
2023-02-08T10:46:40.844Z,8.98
2023-02-08T10:49:38.627Z,10.05
2023-02-08T10:52:05.347Z,9.95
2023-02-08T10:54:33.566Z,9.93
2023-02-08T10:57:04.795Z,9.73
2023-02-08T10:59:58.459Z,9.43
2023-02-08T11:02:43.074Z,8.65
2023-02-08T11:05:15.796Z,8.52
2023-02-08T11:07:42.515Z,8.60
2023-02-08T11:10:18.240Z,8.20
2023-02-08T11:15:28.114Z,8.43
2023-02-08T11:17:59.609Z,8.88
2023-02-08T11:20:33.195Z,8.15
2023-02-08T11:22:59.868Z,8.60
2023-02-08T11:25:37.853Z,8.40
2023-02-08T11:28:05.874Z,8.35
2023-02-08T11:30:32.658Z,7.32
2023-02-08T11:33:29.657Z,8.00
2023-02-08T11:36:07.303Z,8.07
2023-02-08T11:38:38.557Z,8.55
2023-02-08T11:41:05.850Z,7.43
2023-02-08T11:43:33.917Z,9.15
2023-02-08T11:46:01.906Z,9.20
2023-02-08T11:48:43.020Z,8.23
2023-02-08T11:51:09.716Z,8.60
2023-02-08T11:53:38.039Z,7.75
2023-02-08T11:56:07.602Z,7.47
2023-02-08T11:58:34.298Z,7.53
2023-02-08T12:01:04.929Z,6.80
2023-02-08T12:03:36.147Z,7.03
2023-02-08T12:06:08.677Z,7.07
2023-02-08T12:09:30.641Z,7.00
2023-02-08T12:12:20.965Z,6.50
2023-02-08T12:15:02.639Z,6.32
2023-02-08T12:20:29.545Z,5.45
2023-02-08T12:23:04.820Z,5.47
2023-02-08T12:25:36.978Z,5.60
2023-02-08T12:28:10.534Z,5.47
2023-02-08T12:30:45.232Z,5.88
2023-02-08T12:33:54.140Z,5.85
2023-02-08T12:36:35.882Z,5.00
2023-02-08T12:39:19.638Z,5.40
2023-02-08T12:41:56.608Z,5.30
2023-02-08T12:44:32.374Z,5.20
2023-02-08T12:47:07.981Z,5.35
2023-02-08T12:49:56.407Z,5.00
2023-02-08T12:52:55.103Z,4.75
2023-02-08T12:55:40.408Z,5.03
2023-02-08T12:58:27.100Z,4.57
2023-02-08T13:00:54.570Z,5.05
2023-02-08T13:03:44.392Z,4.88
2023-02-08T13:06:21.535Z,4.85
2023-02-08T13:08:54.976Z,4.72
2023-02-08T13:11:30.602Z,4.25
2023-02-08T13:14:02.350Z,4.53
2023-02-08T13:16:32.297Z,4.38
2023-02-08T13:19:23.891Z,4.20
2023-02-08T13:21:51.153Z,4.20
2023-02-08T13:24:34.063Z,4.25
2023-02-08T13:27:00.707Z,4.25
2023-02-08T13:29:28.327Z,3.72
2023-02-08T13:32:10.762Z,4.00
2023-02-08T13:34:46.829Z,3.67
2023-02-08T13:37:26.215Z,4.05
2023-02-08T13:40:01.385Z,3.63
2023-02-08T13:42:31.166Z,3.92
2023-02-08T13:44:57.852Z,4.30
2023-02-08T13:47:28.392Z,4.10
2023-02-08T13:49:57.404Z,4.05
2023-02-08T13:52:46.535Z,4.03
2023-02-08T13:55:29.525Z,4.20
2023-02-08T13:58:00.056Z,4.20
2023-02-08T14:00:36.045Z,4.03
2023-02-08T14:03:14.498Z,3.63
2023-02-08T14:05:54.381Z,3.90
2023-02-08T14:08:38.849Z,4.40
2023-02-08T14:11:14.311Z,4.25
2023-02-08T14:19:02.153Z,4.10
2023-02-08T14:21:28.729Z,4.05
2023-02-08T14:24:06.791Z,4.13
2023-02-08T14:26:33.566Z,4.13
2023-02-08T14:29:01.481Z,4.93
2023-02-08T14:31:39.259Z,4.60
2023-02-08T14:34:05.942Z,3.22
2023-02-08T14:36:34.266Z,4.40
2023-02-08T14:39:08.400Z,4.20
2023-02-08T14:41:46.562Z,6.20
2023-02-08T14:44:38.307Z,4.93
2023-02-08T14:47:11.913Z,3.50
2023-02-08T14:49:40.324Z,3.55
2023-02-08T14:52:22.000Z,3.50
2023-02-08T14:55:02.205Z,3.28
2023-02-08T14:57:34.172Z,3.05
2023-02-08T15:00:06.463Z,3.20
2023-02-08T15:02:33.243Z,3.15
2023-02-08T15:05:00.656Z,3.35
2023-02-08T15:07:52.219Z,4.05
2023-02-08T15:10:19.627Z,3.80
2023-02-08T15:12:49.351Z,3.83
2023-02-08T15:15:26.429Z,3.65
2023-02-08T15:17:53.374Z,3.90
2023-02-08T15:20:34.925Z,3.13
2023-02-08T15:23:02.657Z,3.80
2023-02-08T15:25:34.207Z,3.80
2023-02-08T15:28:21.886Z,3.28
2023-02-08T15:31:02.372Z,2.95
2023-02-08T15:33:29.096Z,2.80
2023-02-08T15:35:56.931Z,2.83
2023-02-08T15:38:24.628Z,3.33
2023-02-08T15:41:09.055Z,3.25
2023-02-08T15:43:36.219Z,3.63
2023-02-08T15:46:07.729Z,3.58
2023-02-08T15:48:34.536Z,3.70
2023-02-08T15:51:01.219Z,4.03
2023-02-08T15:53:27.878Z,3.63
2023-02-08T15:56:00.150Z,5.68
2023-02-08T15:58:33.114Z,10.88
2023-02-08T16:01:00.510Z,10.30
2023-02-08T16:03:27.432Z,10.43
2023-02-08T16:06:03.842Z,5.10
2023-02-08T16:08:35.101Z,3.80
2023-02-08T16:11:02.337Z,3.85
2023-02-08T16:13:36.387Z,4.47
2023-02-08T16:16:25.794Z,4.53
2023-02-08T16:19:29.943Z,4.85
2023-02-08T16:22:15.040Z,4.32
2023-02-08T16:24:41.755Z,4.00
2023-02-08T16:27:24.508Z,3.80
2023-02-08T16:29:51.260Z,4.22
2023-02-08T16:32:32.214Z,4.32
2023-02-08T16:35:11.054Z,4.38
2023-02-08T16:37:37.724Z,3.90
2023-02-08T16:40:23.885Z,4.15
2023-02-08T16:42:50.568Z,3.72
2023-02-08T16:45:19.045Z,4.10
2023-02-08T16:47:52.500Z,4.22
2023-02-08T16:50:23.713Z,3.80
2023-02-08T16:53:10.453Z,4.55
2023-02-08T16:55:37.222Z,4.32
2023-02-08T16:58:03.870Z,4.95
2023-02-08T17:00:30.993Z,4.68
2023-02-08T17:02:57.759Z,4.82
2023-02-08T17:05:26.571Z,4.75
2023-02-08T17:07:53.284Z,5.07
2023-02-08T17:10:29.274Z,4.10
2023-02-08T17:15:45.748Z,4.78
2023-02-08T17:18:12.893Z,4.25
2023-02-08T17:20:40.308Z,4.20
2023-02-08T17:23:07.285Z,4.43
2023-02-08T17:25:34.406Z,4.50
2023-02-08T17:28:06.617Z,4.35
2023-02-08T17:30:40.991Z,4.93
2023-02-08T17:33:07.909Z,4.90
2023-02-08T17:35:34.688Z,5.68
2023-02-08T17:38:01.347Z,8.32
2023-02-08T17:40:30.862Z,9.32
2023-02-08T17:42:57.505Z,8.82
2023-02-08T17:45:24.144Z,8.48
2023-02-08T17:47:50.812Z,8.93
2023-02-08T17:50:17.975Z,9.52
2023-02-08T17:52:45.000Z,8.98
2023-02-08T17:55:12.814Z,9.48
2023-02-08T17:57:40.278Z,9.00
2023-02-08T18:00:09.234Z,7.35
2023-02-08T18:02:36.243Z,7.65
2023-02-08T18:05:05.527Z,6.45
2023-02-08T18:07:32.169Z,6.80
2023-02-08T18:09:58.894Z,6.50
2023-02-08T18:12:25.609Z,7.15
2023-02-08T18:14:52.224Z,8.07
2023-02-08T18:17:18.900Z,8.40
2023-02-08T18:19:45.511Z,5.80
2023-02-08T18:22:12.132Z,6.90
2023-02-08T18:24:38.831Z,5.50
2023-02-08T18:27:05.470Z,5.85
2023-02-08T18:29:32.317Z,7.10
2023-02-08T18:31:59.112Z,6.60
2023-02-08T18:34:25.792Z,6.82
2023-02-08T18:36:52.545Z,7.53
2023-02-08T18:39:19.236Z,8.70
2023-02-08T18:41:45.894Z,9.55
2023-02-08T18:44:12.542Z,10.18
2023-02-08T18:46:39.220Z,10.02
2023-02-08T18:49:05.964Z,9.02
2023-02-08T18:51:32.656Z,8.82
2023-02-08T18:53:59.435Z,9.85
2023-02-08T18:56:26.635Z,10.18
2023-02-08T18:58:53.877Z,10.00
2023-02-08T19:01:22.288Z,10.98
2023-02-08T19:03:49.150Z,11.32
2023-02-08T19:06:17.465Z,11.35
2023-02-08T19:08:44.936Z,11.52
2023-02-08T19:11:19.387Z,11.00
2023-02-08T19:13:46.226Z,10.32
2023-02-08T19:16:13.235Z,9.85
2023-02-08T19:18:40.161Z,10.85
2023-02-08T19:21:09.138Z,10.10
2023-02-08T19:23:37.950Z,10.05
2023-02-08T19:26:06.344Z,10.70
2023-02-08T19:28:33.245Z,11.30
2023-02-08T19:31:07.311Z,10.27
2023-02-08T19:33:34.411Z,10.63
2023-02-08T19:36:08.390Z,10.02
2023-02-08T19:38:35.773Z,11.13
2023-02-08T19:41:02.695Z,9.98
2023-02-08T19:43:29.342Z,10.30
2023-02-08T19:45:56.259Z,11.13
2023-02-08T19:48:23.030Z,10.77
2023-02-08T19:50:59.383Z,11.13
2023-02-08T19:53:26.562Z,9.98
2023-02-08T19:55:56.892Z,10.68
2023-02-08T19:58:23.541Z,9.82
2023-02-08T20:00:50.553Z,10.60
2023-02-08T20:03:21.775Z,10.70
2023-02-08T20:05:49.210Z,10.07
2023-02-08T20:08:16.046Z,10.95
2023-02-08T20:10:44.250Z,10.45
2023-02-08T20:13:11.252Z,10.02
2023-02-08T20:15:39.069Z,10.43
2023-02-08T20:18:06.048Z,11.80
2023-02-08T20:20:35.649Z,11.65
2023-02-08T20:23:05.372Z,12.02
2023-02-08T20:25:35.703Z,12.43
2023-02-08T20:28:02.641Z,12.05
2023-02-08T20:30:29.296Z,11.77
2023-02-08T20:32:55.906Z,10.77
2023-02-08T20:35:22.713Z,12.35
2023-02-08T20:37:49.373Z,10.93
2023-02-08T20:40:16.344Z,10.60
2023-02-08T20:42:43.031Z,10.73
2023-02-08T20:45:10.439Z,11.38
2023-02-08T20:47:45.938Z,10.18
2023-02-08T20:50:18.680Z,11.07
2023-02-08T20:52:46.517Z,10.07
2023-02-08T20:55:13.292Z,11.13
2023-02-08T20:57:40.365Z,10.82
2023-02-08T21:00:07.535Z,11.20
2023-02-08T21:02:34.322Z,10.52
2023-02-08T21:05:01.401Z,9.68
2023-02-08T21:07:28.395Z,10.55
2023-02-08T21:09:55.073Z,10.18
2023-02-08T21:12:21.849Z,9.55
2023-02-08T21:14:48.592Z,9.93
2023-02-08T21:17:15.335Z,10.20
2023-02-08T21:19:41.940Z,10.02
2023-02-08T21:22:09.478Z,9.32
2023-02-08T21:24:36.136Z,9.65
2023-02-08T21:27:02.797Z,10.57
2023-02-08T21:29:29.756Z,9.90
2023-02-08T21:31:57.019Z,10.30
2023-02-08T21:34:24.697Z,10.40
2023-02-08T21:36:51.716Z,10.75
2023-02-08T21:39:18.936Z,10.50
2023-02-08T21:41:46.021Z,10.20
2023-02-08T21:44:13.062Z,9.98
2023-02-08T21:46:40.088Z,11.38
2023-02-08T21:49:07.119Z,11.48
2023-02-08T21:51:43.330Z,11.40
2023-02-08T21:56:40.778Z,11.70
2023-02-08T21:59:07.722Z,10.18
2023-02-08T22:01:34.862Z,9.68
2023-02-08T22:04:01.555Z,10.07
2023-02-08T22:06:28.150Z,10.68
2023-02-08T22:08:54.824Z,9.90
2023-02-08T22:11:21.497Z,10.13
2023-02-08T22:13:48.188Z,10.20
2023-02-08T22:16:16.799Z,10.07
2023-02-08T22:18:44.511Z,12.85
2023-02-08T22:21:11.149Z,10.00
2023-02-08T22:23:37.787Z,12.48
2023-02-08T22:26:08.500Z,10.02
2023-02-08T22:28:35.543Z,10.15
2023-02-08T22:31:02.829Z,10.95
2023-02-08T22:33:29.761Z,10.20
2023-02-08T22:35:56.452Z,9.77
2023-02-08T22:38:23.446Z,11.77
2023-02-08T22:40:50.298Z,10.40
2023-02-08T22:43:16.948Z,11.15
2023-02-08T22:45:43.710Z,11.10
2023-02-08T22:48:10.357Z,11.15
2023-02-08T22:50:40.148Z,11.75
2023-02-08T22:53:06.789Z,11.10
2023-02-08T22:55:33.439Z,10.80
2023-02-08T22:58:00.109Z,11.40
2023-02-08T23:00:26.788Z,10.98
2023-02-08T23:02:53.479Z,11.32
2023-02-08T23:05:20.155Z,11.93
2023-02-08T23:07:46.772Z,10.15
2023-02-08T23:10:13.560Z,10.23
2023-02-08T23:12:40.285Z,10.45
2023-02-08T23:15:07.116Z,11.55
2023-02-08T23:17:35.583Z,9.55
2023-02-08T23:20:02.281Z,9.73
2023-02-08T23:22:28.897Z,10.02
2023-02-08T23:24:56.604Z,9.57
2023-02-08T23:27:23.358Z,8.93
2023-02-08T23:30:09.678Z,10.25
2023-02-08T23:32:36.479Z,10.65
2023-02-08T23:35:03.135Z,10.90
2023-02-08T23:37:29.809Z,10.35
2023-02-08T23:39:56.468Z,10.10
2023-02-08T23:42:23.087Z,10.18
2023-02-08T23:44:49.756Z,9.75
2023-02-08T23:47:16.387Z,9.73
2023-02-08T23:49:43.097Z,10.15
2023-02-08T23:52:09.848Z,9.88
2023-02-08T23:54:36.856Z,10.27
2023-02-08T23:57:06.608Z,9.20
2023-02-08T23:59:33.300Z,9.25
